sensor_id;sensor_type;location;lat;lon;timestamp;pressure;altitude;pressure_sealevel;temperature;humidity
38466;BME280;24244;51.950;5.902;2023-06-22T00:00:07;101821.97;;;21.70;61.99
38466;BME280;24244;51.950;5.902;2023-06-22T00:02:38;101813.25;;;21.68;61.99
38466;BME280;24244;51.950;5.902;2023-06-22T00:05:06;101815.38;;;21.66;61.95
38466;BME280;24244;51.950;5.902;2023-06-22T00:07:33;101816.22;;;21.66;61.74
38466;BME280;24244;51.950;5.902;2023-06-22T00:10:00;101816.22;;;21.66;62.13
38466;BME280;24244;51.950;5.902;2023-06-22T00:12:26;101811.03;;;21.65;61.93
38466;BME280;24244;51.950;5.902;2023-06-22T00:14:53;101813.13;;;21.63;61.89
38466;BME280;24244;51.950;5.902;2023-06-22T00:17:23;101802.81;;;21.60;62.07
38466;BME280;24244;51.950;5.902;2023-06-22T00:19:50;101805.72;;;21.58;62.09
38466;BME280;24244;51.950;5.902;2023-06-22T00:22:20;101797.25;;;21.55;61.97
38466;BME280;24244;51.950;5.902;2023-06-22T00:24:56;101803.72;;;21.54;61.85
38466;BME280;24244;51.950;5.902;2023-06-22T00:27:22;101800.16;;;21.53;61.80
38466;BME280;24244;51.950;5.902;2023-06-22T00:29:49;101799.59;;;21.51;61.78
38466;BME280;24244;51.950;5.902;2023-06-22T00:32:16;101804.66;;;21.47;61.86
38466;BME280;24244;51.950;5.902;2023-06-22T00:34:45;101798.06;;;21.43;62.20
38466;BME280;24244;51.950;5.902;2023-06-22T00:37:12;101794.75;;;21.41;62.12
38466;BME280;24244;51.950;5.902;2023-06-22T00:39:38;101794.75;;;21.41;62.41
38466;BME280;24244;51.950;5.902;2023-06-22T00:42:07;101793.94;;;21.41;62.28
38466;BME280;24244;51.950;5.902;2023-06-22T00:44:34;101797.69;;;21.40;62.64
38466;BME280;24244;51.950;5.902;2023-06-22T00:47:01;101793.34;;;21.39;62.61
38466;BME280;24244;51.950;5.902;2023-06-22T00:49:29;101785.47;;;21.37;62.75
38466;BME280;24244;51.950;5.902;2023-06-22T00:51:58;101794.63;;;21.36;62.80
38466;BME280;24244;51.950;5.902;2023-06-22T00:54:25;101801.09;;;21.35;62.84
38466;BME280;24244;51.950;5.902;2023-06-22T00:56:53;101801.31;;;21.34;62.92
38466;BME280;24244;51.950;5.902;2023-06-22T00:59:21;101809.91;;;21.31;63.09
38466;BME280;24244;51.950;5.902;2023-06-22T01:01:49;101806.84;;;21.27;63.27
38466;BME280;24244;51.950;5.902;2023-06-22T01:04:16;101810.25;;;21.23;63.46
38466;BME280;24244;51.950;5.902;2023-06-22T01:06:50;101807.16;;;21.19;63.62
38466;BME280;24244;51.950;5.902;2023-06-22T01:09:27;101806.59;;;21.17;63.50
38466;BME280;24244;51.950;5.902;2023-06-22T01:12:00;101804.09;;;21.16;63.67
38466;BME280;24244;51.950;5.902;2023-06-22T01:14:33;101796.63;;;21.11;63.71
38466;BME280;24244;51.950;5.902;2023-06-22T01:17:03;101796.28;;;21.07;63.88
38466;BME280;24244;51.950;5.902;2023-06-22T01:19:38;101797.78;;;21.03;63.95
38466;BME280;24244;51.950;5.902;2023-06-22T01:22:09;101792.88;;;21.00;64.09
38466;BME280;24244;51.950;5.902;2023-06-22T01:24:50;101795.78;;;20.99;64.02
38466;BME280;24244;51.950;5.902;2023-06-22T01:27:32;101787.34;;;20.95;64.24
38466;BME280;24244;51.950;5.902;2023-06-22T01:30:02;101791.53;;;20.91;64.30
38466;BME280;24244;51.950;5.902;2023-06-22T01:32:33;101779.53;;;20.87;64.34
38466;BME280;24244;51.950;5.902;2023-06-22T01:35:03;101784.34;;;20.85;64.54
38466;BME280;24244;51.950;5.902;2023-06-22T01:37:32;101771.53;;;20.81;64.52
38466;BME280;24244;51.950;5.902;2023-06-22T01:40:00;101790.19;;;20.82;64.51
38466;BME280;24244;51.950;5.902;2023-06-22T01:42:28;101787.25;;;20.84;64.42
38466;BME280;24244;51.950;5.902;2023-06-22T01:44:58;101781.03;;;20.83;64.44
38466;BME280;24244;51.950;5.902;2023-06-22T01:47:27;101776.44;;;20.84;64.39
38466;BME280;24244;51.950;5.902;2023-06-22T01:49:54;101778.59;;;20.82;64.53
38466;BME280;24244;51.950;5.902;2023-06-22T01:52:22;101776.09;;;20.80;64.47
38466;BME280;24244;51.950;5.902;2023-06-22T01:54:48;101767.63;;;20.77;64.52
38466;BME280;24244;51.950;5.902;2023-06-22T01:57:16;101775.38;;;20.73;64.74
38466;BME280;24244;51.950;5.902;2023-06-22T01:59:48;101770.19;;;20.71;64.80
38466;BME280;24244;51.950;5.902;2023-06-22T02:02:19;101776.41;;;20.72;64.88
38466;BME280;24244;51.950;5.902;2023-06-22T02:04:52;101778.28;;;20.71;64.67
38466;BME280;24244;51.950;5.902;2023-06-22T02:07:23;101772.28;;;20.69;64.75
38466;BME280;24244;51.950;5.902;2023-06-22T02:09:52;101774.16;;;20.69;64.91
38466;BME280;24244;51.950;5.902;2023-06-22T02:12:23;101782.47;;;20.67;64.67
38466;BME280;24244;51.950;5.902;2023-06-22T02:14:52;101783.19;;;20.63;64.98
38466;BME280;24244;51.950;5.902;2023-06-22T02:17:19;101782.56;;;20.61;64.96
38466;BME280;24244;51.950;5.902;2023-06-22T02:19:47;101785.28;;;20.61;65.09
38466;BME280;24244;51.950;5.902;2023-06-22T02:22:14;101775.56;;;20.60;64.97
38466;BME280;24244;51.950;5.902;2023-06-22T02:24:41;101781.75;;;20.60;65.06
38466;BME280;24244;51.950;5.902;2023-06-22T02:27:13;101767.66;;;20.58;65.09
38466;BME280;24244;51.950;5.902;2023-06-22T02:29:40;101764.00;;;20.53;65.20
38466;BME280;24244;51.950;5.902;2023-06-22T02:32:07;101768.81;;;20.51;65.25
38466;BME280;24244;51.950;5.902;2023-06-22T02:34:34;101765.28;;;20.50;65.51
38466;BME280;24244;51.950;5.902;2023-06-22T02:37:04;101762.56;;;20.50;65.48
38466;BME280;24244;51.950;5.902;2023-06-22T02:39:31;101755.28;;;20.51;65.47
38466;BME280;24244;51.950;5.902;2023-06-22T02:41:58;101764.22;;;20.51;65.55
38466;BME280;24244;51.950;5.902;2023-06-22T02:44:25;101760.69;;;20.51;65.48
38466;BME280;24244;51.950;5.902;2023-06-22T02:46:52;101763.19;;;20.52;65.52
38466;BME280;24244;51.950;5.902;2023-06-22T02:49:20;101756.13;;;20.51;65.53
38466;BME280;24244;51.950;5.902;2023-06-22T02:51:48;101762.34;;;20.52;65.33
38466;BME280;24244;51.950;5.902;2023-06-22T02:54:16;101762.34;;;20.52;65.39
38466;BME280;24244;51.950;5.902;2023-06-22T02:56:43;101763.19;;;20.52;65.33
38466;BME280;24244;51.950;5.902;2023-06-22T02:59:10;101756.56;;;20.48;65.47
38466;BME280;24244;51.950;5.902;2023-06-22T03:01:38;101753.72;;;20.43;65.49
38466;BME280;24244;51.950;5.902;2023-06-22T03:04:07;101751.72;;;20.39;65.72
38466;BME280;24244;51.950;5.902;2023-06-22T03:06:34;101751.13;;;20.37;66.02
38466;BME280;24244;51.950;5.902;2023-06-22T03:09:03;101745.94;;;20.35;66.14
38466;BME280;24244;51.950;5.902;2023-06-22T03:11:33;101746.75;;;20.36;65.75
38466;BME280;24244;51.950;5.902;2023-06-22T03:14:01;101749.25;;;20.37;65.68
38466;BME280;24244;51.950;5.902;2023-06-22T03:16:28;101748.41;;;20.37;65.95
38466;BME280;24244;51.950;5.902;2023-06-22T03:18:57;101742.78;;;20.38;65.94
38466;BME280;24244;51.950;5.902;2023-06-22T03:21:27;101749.25;;;20.37;66.13
38466;BME280;24244;51.950;5.902;2023-06-22T03:23:54;101741.13;;;20.37;65.92
38466;BME280;24244;51.950;5.902;2023-06-22T03:26:21;101742.41;;;20.35;66.32
38466;BME280;24244;51.950;5.902;2023-06-22T03:28:49;101737.22;;;20.33;66.35
38466;BME280;24244;51.950;5.902;2023-06-22T03:31:16;101729.34;;;20.31;66.50
38466;BME280;24244;51.950;5.902;2023-06-22T03:33:48;101721.69;;;20.28;66.73
38466;BME280;24244;51.950;5.902;2023-06-22T03:36:16;101727.09;;;20.28;66.83
38466;BME280;24244;51.950;5.902;2023-06-22T03:38:47;101731.03;;;20.26;67.01
38466;BME280;24244;51.950;5.902;2023-06-22T03:41:15;101725.06;;;20.24;67.35
38466;BME280;24244;51.950;5.902;2023-06-22T03:43:42;101728.81;;;20.23;67.56
38466;BME280;24244;51.950;5.902;2023-06-22T03:46:10;101732.09;;;20.25;67.41
38466;BME280;24244;51.950;5.902;2023-06-22T03:48:37;101733.16;;;20.24;67.66
38466;BME280;24244;51.950;5.902;2023-06-22T03:51:05;101730.69;;;20.22;67.75
38466;BME280;24244;51.950;5.902;2023-06-22T03:53:32;101722.59;;;20.22;67.92
38466;BME280;24244;51.950;5.902;2023-06-22T03:55:59;101723.63;;;20.21;68.23
38466;BME280;24244;51.950;5.902;2023-06-22T03:58:26;101724.91;;;20.19;68.54
38466;BME280;24244;51.950;5.902;2023-06-22T04:00:53;101722.19;;;20.19;68.58
38466;BME280;24244;51.950;5.902;2023-06-22T04:03:21;101718.69;;;20.18;68.60
38466;BME280;24244;51.950;5.902;2023-06-22T04:05:48;101722.44;;;20.17;68.91
38466;BME280;24244;51.950;5.902;2023-06-22T04:08:15;101718.94;;;20.17;69.18
38466;BME280;24244;51.950;5.902;2023-06-22T04:10:42;101720.19;;;20.14;69.59
38466;BME280;24244;51.950;5.902;2023-06-22T04:13:10;101723.72;;;20.15;69.63
38466;BME280;24244;51.950;5.902;2023-06-22T04:15:37;101722.19;;;20.19;69.57
38466;BME280;24244;51.950;5.902;2023-06-22T04:18:04;101725.50;;;20.21;69.54
38466;BME280;24244;51.950;5.902;2023-06-22T04:20:33;101727.16;;;20.22;69.47
38466;BME280;24244;51.950;5.902;2023-06-22T04:23:00;101726.94;;;20.23;69.49
38466;BME280;24244;51.950;5.902;2023-06-22T04:25:26;101720.72;;;20.23;69.80
38466;BME280;24244;51.950;5.902;2023-06-22T04:27:53;101727.78;;;20.24;69.91
38466;BME280;24244;51.950;5.902;2023-06-22T04:30:20;101721.91;;;20.27;69.96
38466;BME280;24244;51.950;5.902;2023-06-22T04:32:48;101721.47;;;20.30;69.89
38466;BME280;24244;51.950;5.902;2023-06-22T04:35:26;101724.72;;;20.32;69.67
38466;BME280;24244;51.950;5.902;2023-06-22T04:37:58;101718.94;;;20.35;69.82
38466;BME280;24244;51.950;5.902;2023-06-22T04:40:25;101725.97;;;20.36;70.05
38466;BME280;24244;51.950;5.902;2023-06-22T04:42:53;101716.84;;;20.37;70.20
38466;BME280;24244;51.950;5.902;2023-06-22T04:45:21;101724.94;;;20.37;70.31
38466;BME280;24244;51.950;5.902;2023-06-22T04:47:48;101719.53;;;20.37;70.55
38466;BME280;24244;51.950;5.902;2023-06-22T04:50:15;101718.00;;;20.41;70.35
38466;BME280;24244;51.950;5.902;2023-06-22T04:52:42;101709.09;;;20.41;70.79
38466;BME280;24244;51.950;5.902;2023-06-22T04:55:10;101700.97;;;20.41;70.96
38466;BME280;24244;51.950;5.902;2023-06-22T04:57:39;101713.44;;;20.42;71.13
38466;BME280;24244;51.950;5.902;2023-06-22T05:00:07;101720.28;;;20.44;70.97
38466;BME280;24244;51.950;5.902;2023-06-22T05:02:44;101716.03;;;20.48;70.80
38466;BME280;24244;51.950;5.902;2023-06-22T05:05:12;101707.50;;;20.51;70.78
38466;BME280;24244;51.950;5.902;2023-06-22T05:07:43;101708.31;;;20.52;71.16
38466;BME280;24244;51.950;5.902;2023-06-22T05:10:12;101705.38;;;20.53;71.16
38466;BME280;24244;51.950;5.902;2023-06-22T05:12:40;101706.59;;;20.57;71.08
38466;BME280;24244;51.950;5.902;2023-06-22T05:15:08;101711.50;;;20.60;70.90
38466;BME280;24244;51.950;5.902;2023-06-22T05:17:35;101708.34;;;20.63;71.09
38466;BME280;24244;51.950;5.902;2023-06-22T05:20:03;101709.41;;;20.62;72.21
38466;BME280;24244;51.950;5.902;2023-06-22T05:22:33;101713.16;;;20.61;71.74
38466;BME280;24244;51.950;5.902;2023-06-22T05:25:00;101714.81;;;20.62;72.05
38466;BME280;24244;51.950;5.902;2023-06-22T05:27:28;101710.63;;;20.66;71.70
38466;BME280;24244;51.950;5.902;2023-06-22T05:29:55;101707.91;;;20.66;72.20
38466;BME280;24244;51.950;5.902;2023-06-22T05:32:22;101708.25;;;20.70;71.89
38466;BME280;24244;51.950;5.902;2023-06-22T05:34:49;101707.00;;;20.73;72.13
38466;BME280;24244;51.950;5.902;2023-06-22T05:37:16;101716.16;;;20.71;71.91
38466;BME280;24244;51.950;5.902;2023-06-22T05:39:42;101708.66;;;20.74;71.78
38466;BME280;24244;51.950;5.902;2023-06-22T05:42:10;101723.31;;;20.78;71.62
38466;BME280;24244;51.950;5.902;2023-06-22T05:44:38;101726.84;;;20.78;72.06
38466;BME280;24244;51.950;5.902;2023-06-22T05:47:07;101730.72;;;20.82;71.86
38466;BME280;24244;51.950;5.902;2023-06-22T05:49:34;101721.56;;;20.83;71.93
38466;BME280;24244;51.950;5.902;2023-06-22T05:52:01;101732.75;;;20.87;71.73
38466;BME280;24244;51.950;5.902;2023-06-22T05:54:28;101729.34;;;20.91;71.63
38466;BME280;24244;51.950;5.902;2023-06-22T05:56:57;101727.03;;;20.95;71.48
38466;BME280;24244;51.950;5.902;2023-06-22T05:59:23;101723.03;;;20.97;71.42
38466;BME280;24244;51.950;5.902;2023-06-22T06:01:51;101718.81;;;21.01;71.26
38466;BME280;24244;51.950;5.902;2023-06-22T06:04:19;101725.63;;;21.04;71.06
38466;BME280;24244;51.950;5.902;2023-06-22T06:06:46;101727.66;;;21.08;70.97
38466;BME280;24244;51.950;5.902;2023-06-22T06:09:13;101729.03;;;21.11;70.92
38466;BME280;24244;51.950;5.902;2023-06-22T06:11:40;101727.78;;;21.14;70.78
38466;BME280;24244;51.950;5.902;2023-06-22T06:14:07;101721.94;;;21.17;70.76
38466;BME280;24244;51.950;5.902;2023-06-22T06:16:34;101725.00;;;21.20;70.70
38466;BME280;24244;51.950;5.902;2023-06-22T06:19:03;101729.13;;;21.23;70.75
38466;BME280;24244;51.950;5.902;2023-06-22T06:21:29;101733.81;;;21.27;70.76
38466;BME280;24244;51.950;5.902;2023-06-22T06:23:57;101736.06;;;21.30;70.72
38466;BME280;24244;51.950;5.902;2023-06-22T06:26:23;101725.81;;;21.32;70.57
38466;BME280;24244;51.950;5.902;2023-06-22T06:28:55;101719.13;;;21.35;70.43
38466;BME280;24244;51.950;5.902;2023-06-22T06:31:23;101714.09;;;21.38;70.37
38466;BME280;24244;51.950;5.902;2023-06-22T06:33:49;101711.72;;;21.42;70.42
38466;BME280;24244;51.950;5.902;2023-06-22T06:36:18;101708.31;;;21.46;70.55
38466;BME280;24244;51.950;5.902;2023-06-22T06:38:46;101706.19;;;21.48;70.52
38466;BME280;24244;51.950;5.902;2023-06-22T06:41:14;101707.38;;;21.53;70.53
38466;BME280;24244;51.950;5.902;2023-06-22T06:43:42;101710.66;;;21.55;70.49
38466;BME280;24244;51.950;5.902;2023-06-22T06:46:11;101709.97;;;21.59;70.28
38466;BME280;24244;51.950;5.902;2023-06-22T06:48:38;101699.47;;;21.63;70.52
38466;BME280;24244;51.950;5.902;2023-06-22T06:51:06;101696.06;;;21.67;70.58
38466;BME280;24244;51.950;5.902;2023-06-22T06:53:37;101701.00;;;21.70;70.31
38466;BME280;24244;51.950;5.902;2023-06-22T06:56:04;101705.69;;;21.75;70.52
38466;BME280;24244;51.950;5.902;2023-06-22T06:58:32;101695.00;;;21.80;70.33
38466;BME280;24244;51.950;5.902;2023-06-22T07:00:59;101698.66;;;21.85;70.07
38466;BME280;24244;51.950;5.902;2023-06-22T07:03:26;101693.56;;;21.89;69.95
38466;BME280;24244;51.950;5.902;2023-06-22T07:05:53;101693.69;;;21.94;69.97
38466;BME280;24244;51.950;5.902;2023-06-22T07:08:20;101682.41;;;21.97;69.92
38466;BME280;24244;51.950;5.902;2023-06-22T07:10:48;101689.00;;;22.01;69.67
38466;BME280;24244;51.950;5.902;2023-06-22T07:13:17;101690.38;;;22.04;69.79
38466;BME280;24244;51.950;5.902;2023-06-22T07:15:44;101685.31;;;22.07;69.69
38466;BME280;24244;51.950;5.902;2023-06-22T07:18:11;101687.31;;;22.12;69.64
38466;BME280;24244;51.950;5.902;2023-06-22T07:20:40;101681.41;;;22.15;69.44
38466;BME280;24244;51.950;5.902;2023-06-22T07:23:08;101680.91;;;22.18;69.41
38466;BME280;24244;51.950;5.902;2023-06-22T07:25:35;101684.00;;;22.21;69.29
38466;BME280;24244;51.950;5.902;2023-06-22T07:28:04;101678.06;;;22.24;69.00
38466;BME280;24244;51.950;5.902;2023-06-22T07:30:33;101674.06;;;22.27;68.90
38466;BME280;24244;51.950;5.902;2023-06-22T07:33:01;101664.38;;;22.31;69.01
38466;BME280;24244;51.950;5.902;2023-06-22T07:35:30;101665.78;;;22.34;68.85
38466;BME280;24244;51.950;5.902;2023-06-22T07:37:57;101664.25;;;22.38;69.22
38466;BME280;24244;51.950;5.902;2023-06-22T07:40:24;101662.13;;;22.40;68.85
38466;BME280;24244;51.950;5.902;2023-06-22T07:42:51;101658.69;;;22.44;68.51
38466;BME280;24244;51.950;5.902;2023-06-22T07:45:21;101656.53;;;22.46;68.47
38466;BME280;24244;51.950;5.902;2023-06-22T07:47:48;101655.84;;;22.51;68.26
38466;BME280;24244;51.950;5.902;2023-06-22T07:50:15;101649.91;;;22.54;68.34
38466;BME280;24244;51.950;5.902;2023-06-22T07:52:42;101652.97;;;22.57;68.22
38466;BME280;24244;51.950;5.902;2023-06-22T07:55:09;101652.22;;;22.62;68.21
38466;BME280;24244;51.950;5.902;2023-06-22T07:57:35;101658.00;;;22.65;68.26
38466;BME280;24244;51.950;5.902;2023-06-22T08:00:04;101651.00;;;22.70;67.87
38466;BME280;24244;51.950;5.902;2023-06-22T08:02:47;101646.16;;;22.72;67.65
38466;BME280;24244;51.950;5.902;2023-06-22T08:05:14;101646.53;;;22.75;67.70
38466;BME280;24244;51.950;5.902;2023-06-22T08:08:00;101645.81;;;22.80;67.58
38466;BME280;24244;51.950;5.902;2023-06-22T08:10:28;101648.00;;;22.83;67.22
38466;BME280;24244;51.950;5.902;2023-06-22T08:12:55;101642.94;;;22.86;67.23
38466;BME280;24244;51.950;5.902;2023-06-22T08:15:22;101633.22;;;22.90;67.04
38466;BME280;24244;51.950;5.902;2023-06-22T08:17:50;101628.38;;;22.92;67.07
38466;BME280;24244;51.950;5.902;2023-06-22T08:20:17;101633.28;;;22.95;67.00
38466;BME280;24244;51.950;5.902;2023-06-22T08:22:44;101628.44;;;22.97;67.00
38466;BME280;24244;51.950;5.902;2023-06-22T08:25:12;101611.94;;;22.99;66.71
38466;BME280;24244;51.950;5.902;2023-06-22T08:27:40;101605.22;;;23.01;66.63
38466;BME280;24244;51.950;5.902;2023-06-22T08:30:09;101600.34;;;23.03;66.45
38466;BME280;24244;51.950;5.902;2023-06-22T08:32:37;101589.00;;;23.07;66.50
38466;BME280;24244;51.950;5.902;2023-06-22T08:35:06;101590.97;;;23.11;66.38
38466;BME280;24244;51.950;5.902;2023-06-22T08:37:35;101599.44;;;23.15;66.30
38466;BME280;24244;51.950;5.902;2023-06-22T08:40:04;101593.50;;;23.18;66.24
38466;BME280;24244;51.950;5.902;2023-06-22T08:42:32;101590.88;;;23.23;65.93
38466;BME280;24244;51.950;5.902;2023-06-22T08:45:00;101593.66;;;23.28;64.79
38466;BME280;24244;51.950;5.902;2023-06-22T08:47:27;101604.00;;;23.31;65.10
38466;BME280;24244;51.950;5.902;2023-06-22T08:49:55;101600.78;;;23.34;64.92
38466;BME280;24244;51.950;5.902;2023-06-22T08:52:24;101596.50;;;23.38;64.82
38466;BME280;24244;51.950;5.902;2023-06-22T08:54:53;101591.63;;;23.40;64.79
38466;BME280;24244;51.950;5.902;2023-06-22T08:57:21;101603.66;;;23.44;64.63
38466;BME280;24244;51.950;5.902;2023-06-22T08:59:48;101597.72;;;23.47;64.56
38466;BME280;24244;51.950;5.902;2023-06-22T09:02:15;101591.81;;;23.50;63.92
38466;BME280;24244;51.950;5.902;2023-06-22T09:04:41;101589.66;;;23.52;64.02
38466;BME280;24244;51.950;5.902;2023-06-22T09:07:09;101586.44;;;23.55;63.97
38466;BME280;24244;51.950;5.902;2023-06-22T09:09:37;101588.66;;;23.58;64.17
38466;BME280;24244;51.950;5.902;2023-06-22T09:12:06;101590.63;;;23.63;63.97
38466;BME280;24244;51.950;5.902;2023-06-22T09:14:34;101583.59;;;23.67;63.81
38466;BME280;24244;51.950;5.902;2023-06-22T09:17:01;101580.13;;;23.71;63.99
38466;BME280;24244;51.950;5.902;2023-06-22T09:19:28;101582.91;;;23.76;64.13
38466;BME280;24244;51.950;5.902;2023-06-22T09:21:55;101586.75;;;23.80;63.99
38466;BME280;24244;51.950;5.902;2023-06-22T09:24:22;101577.03;;;23.85;63.67
38466;BME280;24244;51.950;5.902;2023-06-22T09:26:51;101572.72;;;23.89;63.60
38466;BME280;24244;51.950;5.902;2023-06-22T09:29:20;101574.69;;;23.93;63.56
38466;BME280;24244;51.950;5.902;2023-06-22T09:31:46;101574.41;;;23.95;63.73
38466;BME280;24244;51.950;5.902;2023-06-22T09:34:16;101567.41;;;23.99;63.68
38466;BME280;24244;51.950;5.902;2023-06-22T09:36:46;101567.16;;;24.00;63.62
38466;BME280;24244;51.950;5.902;2023-06-22T09:39:13;101558.72;;;24.02;63.56
38466;BME280;24244;51.950;5.902;2023-06-22T09:41:40;101568.28;;;24.04;63.20
38466;BME280;24244;51.950;5.902;2023-06-22T09:44:09;101569.69;;;24.07;62.59
38466;BME280;24244;51.950;5.902;2023-06-22T09:46:35;101572.13;;;24.08;61.72
38466;BME280;24244;51.950;5.902;2023-06-22T09:49:02;101569.72;;;24.12;61.64
38466;BME280;24244;51.950;5.902;2023-06-22T09:51:29;101571.34;;;24.13;60.77
38466;BME280;24244;51.950;5.902;2023-06-22T09:53:56;101566.50;;;24.15;60.33
38466;BME280;24244;51.950;5.902;2023-06-22T09:56:23;101565.97;;;24.18;59.69
38466;BME280;24244;51.950;5.902;2023-06-22T09:58:52;101567.03;;;24.17;58.49
38466;BME280;24244;51.950;5.902;2023-06-22T10:01:22;101561.34;;;24.18;58.93
38466;BME280;24244;51.950;5.902;2023-06-22T10:03:50;101564.69;;;24.21;58.63
38466;BME280;24244;51.950;5.902;2023-06-22T10:06:17;101563.84;;;24.20;59.01
38466;BME280;24244;51.950;5.902;2023-06-22T10:08:45;101567.41;;;24.21;59.09
38466;BME280;24244;51.950;5.902;2023-06-22T10:11:12;101569.03;;;24.22;59.20
38466;BME280;24244;51.950;5.902;2023-06-22T10:13:39;101566.31;;;24.22;59.53
38466;BME280;24244;51.950;5.902;2023-06-22T10:16:05;101568.22;;;24.21;59.31
38466;BME280;24244;51.950;5.902;2023-06-22T10:18:35;101568.22;;;24.21;58.90
38466;BME280;24244;51.950;5.902;2023-06-22T10:21:03;101561.13;;;24.20;58.17
38466;BME280;24244;51.950;5.902;2023-06-22T10:23:30;101559.47;;;24.19;58.51
38466;BME280;24244;51.950;5.902;2023-06-22T10:25:57;101548.38;;;24.21;58.88
38466;BME280;24244;51.950;5.902;2023-06-22T10:28:25;101554.63;;;24.21;58.57
38466;BME280;24244;51.950;5.902;2023-06-22T10:30:51;101550.84;;;24.22;58.81
38466;BME280;24244;51.950;5.902;2023-06-22T10:33:18;101555.16;;;24.23;58.93
38466;BME280;24244;51.950;5.902;2023-06-22T10:35:47;101551.38;;;24.24;59.14
38466;BME280;24244;51.950;5.902;2023-06-22T10:38:14;101546.78;;;24.25;59.02
38466;BME280;24244;51.950;5.902;2023-06-22T10:40:40;101546.53;;;24.26;58.27
38466;BME280;24244;51.950;5.902;2023-06-22T10:43:08;101548.41;;;24.26;58.50
38466;BME280;24244;51.950;5.902;2023-06-22T10:45:34;101547.59;;;24.25;58.97
38466;BME280;24244;51.950;5.902;2023-06-22T10:48:01;101548.41;;;24.26;58.97
38466;BME280;24244;51.950;5.902;2023-06-22T10:50:34;101550.06;;;24.27;57.91
38466;BME280;24244;51.950;5.902;2023-06-22T10:53:02;101554.41;;;24.28;57.14
38466;BME280;24244;51.950;5.902;2023-06-22T10:55:29;101548.72;;;24.29;57.50
38466;BME280;24244;51.950;5.902;2023-06-22T10:58:17;101545.19;;;24.29;57.27
38466;BME280;24244;51.950;5.902;2023-06-22T11:00:44;101539.47;;;24.30;57.52
38466;BME280;24244;51.950;5.902;2023-06-22T11:03:12;101538.41;;;24.31;57.07
38466;BME280;24244;51.950;5.902;2023-06-22T11:05:42;101543.84;;;24.31;57.33
38466;BME280;24244;51.950;5.902;2023-06-22T11:08:11;101533.78;;;24.32;57.59
38466;BME280;24244;51.950;5.902;2023-06-22T11:10:41;101530.81;;;24.33;57.81
38466;BME280;24244;51.950;5.902;2023-06-22T11:13:08;101528.09;;;24.33;57.79
38466;BME280;24244;51.950;5.902;2023-06-22T11:15:38;101532.47;;;24.34;57.92
38466;BME280;24244;51.950;5.902;2023-06-22T11:18:05;101528.94;;;24.34;57.52
38466;BME280;24244;51.950;5.902;2023-06-22T11:20:34;101530.00;;;24.33;57.57
38466;BME280;24244;51.950;5.902;2023-06-22T11:23:05;101525.63;;;24.32;57.27
38466;BME280;24244;51.950;5.902;2023-06-22T11:25:36;101543.84;;;24.31;57.67
38466;BME280;24244;51.950;5.902;2023-06-22T11:28:05;101536.47;;;24.27;58.36
38466;BME280;24244;51.950;5.902;2023-06-22T11:30:31;101543.16;;;24.19;58.93
38466;BME280;24244;51.950;5.902;2023-06-22T11:33:00;101537.94;;;24.12;59.01
38466;BME280;24244;51.950;5.902;2023-06-22T11:35:27;101545.78;;;24.09;59.50
38466;BME280;24244;51.950;5.902;2023-06-22T11:37:54;101552.81;;;24.05;60.55
38466;BME280;24244;51.950;5.902;2023-06-22T11:40:22;101556.03;;;24.02;60.33
38466;BME280;24244;51.950;5.902;2023-06-22T11:42:50;101557.63;;;23.98;60.31
38466;BME280;24244;51.950;5.902;2023-06-22T11:45:18;101554.28;;;23.91;60.07
38466;BME280;24244;51.950;5.902;2023-06-22T11:47:50;101555.56;;;23.83;60.41
38466;BME280;24244;51.950;5.902;2023-06-22T11:50:17;101554.69;;;23.77;60.90
38466;BME280;24244;51.950;5.902;2023-06-22T11:52:44;101553.81;;;23.72;61.50
38466;BME280;24244;51.950;5.902;2023-06-22T11:55:10;101546.16;;;23.69;61.77
38466;BME280;24244;51.950;5.902;2023-06-22T11:57:39;101550.97;;;23.62;63.33
38466;BME280;24244;51.950;5.902;2023-06-22T12:00:19;101544.63;;;23.51;63.78
38466;BME280;24244;51.950;5.902;2023-06-22T12:02:47;101544.69;;;23.39;64.68
38466;BME280;24244;51.950;5.902;2023-06-22T12:05:14;101543.22;;;23.32;65.14
38466;BME280;24244;51.950;5.902;2023-06-22T12:07:41;101544.00;;;23.27;65.76
38466;BME280;24244;51.950;5.902;2023-06-22T12:10:08;101542.84;;;23.23;65.95
38466;BME280;24244;51.950;5.902;2023-06-22T12:12:35;101543.31;;;23.15;66.55
38466;BME280;24244;51.950;5.902;2023-06-22T12:15:02;101542.38;;;23.10;67.28
38466;BME280;24244;51.950;5.902;2023-06-22T12:17:31;101535.84;;;23.06;67.61
38466;BME280;24244;51.950;5.902;2023-06-22T12:19:58;101539.84;;;23.03;67.86
38466;BME280;24244;51.950;5.902;2023-06-22T12:22:25;101543.31;;;22.98;68.84
38466;BME280;24244;51.950;5.902;2023-06-22T12:24:52;101548.69;;;22.93;68.96
38466;BME280;24244;51.950;5.902;2023-06-22T12:27:19;101549.16;;;22.90;69.28
38466;BME280;24244;51.950;5.902;2023-06-22T12:29:46;101551.56;;;22.87;69.72
38466;BME280;24244;51.950;5.902;2023-06-22T12:32:13;101558.53;;;22.83;69.85
38466;BME280;24244;51.950;5.902;2023-06-22T12:34:43;101558.22;;;22.79;70.28
38466;BME280;24244;51.950;5.902;2023-06-22T12:37:10;101548.38;;;22.73;70.71
38466;BME280;24244;51.950;5.902;2023-06-22T12:39:37;101543.41;;;22.70;71.03
38466;BME280;24244;51.950;5.902;2023-06-22T12:42:04;101529.28;;;22.68;70.98
38466;BME280;24244;51.950;5.902;2023-06-22T12:44:31;101524.59;;;22.63;71.51
38466;BME280;24244;51.950;5.902;2023-06-22T12:46:57;101527.81;;;22.60;71.95
38466;BME280;24244;51.950;5.902;2023-06-22T12:49:24;101519.59;;;22.55;72.56
38466;BME280;24244;51.950;5.902;2023-06-22T12:51:52;101509.50;;;22.51;73.00
38466;BME280;24244;51.950;5.902;2023-06-22T12:54:19;101492.34;;;22.45;73.78